Log in

Login to your account

Username *
Password *
Remember Me
User Registration
User Profile
(optional)
Cancel

Nous contacter

 Téléphone : +33 (0)4 79 54 41 81

Coordonnées détaillées et accès : cliquez ici

 
LFLB °C
    Ferienhaus Ostsee
[source: ADDS]
METAR
LFLB 211030Z AUTO VRB03KT 9999 OVC017 07/03 Q1010 NOSIG =
TAF LFLB 210500Z 2106/2206 VRB02KT 6000 BKN020 PROB40 2106/2108 3000 BR PROB40 TEMPO 2120/2124 4000 RA BKN014 SCT080TCU
TAF
TAF LFLB 210500Z 2106/2206 VRB02KT 6000 BKN020 PROB40 2106/2108 3000 BR PROB40 TEMPO 2120/2124 4000 RA BKN014 SCT080TCU =
SR / SS: 06:43 / 16:00 UTC (Lever/Coucher du soleil le 2019-11-21)
JSN Boot template designed by JoomlaShine.com